03:08
Airports
Links
Donate
Help keep this website running!
PayPal
Bitcoin
METAR
KGEY 180253Z AUTO 15003KT 10SM CLR M02/M06 A2954 RMK AO2 SLP047 T10221056 56029 $
Current Weather Conditions at KGEY
VFR 02:53:00 18-02-18
Automated station, no observer
Altimeter:29.54 hg
Temp:-2.2°c 28°f
Dew point:-5.6°c 23°f
Wind:3 knots, 3.5 mph, 2 m/s, from 150°
Visibility:10.0 statute miles
(CLR) Clear
Past METAR reports
VFR 01:53:00 18-02-18
Automated station, no observer
Altimeter:29.56 hg
Temp:1.1°c 34°f
Dew point:-5.0°c 23°f
Wind:0 knots, 0 mph, 0 m/s,
Variable direction
Visibility:10.0 statute miles
(CLR) Clear
KGEY 180153Z AUTO 00000KT 10SM CLR 01/M05 A2956 RMK AO2 SLP046 T00111050 $
VFR 00:53:00 18-02-18
Automated station, no observer
Altimeter:29.60 hg
Temp:2.8°c 36°f
Dew point:-5.0°c 23°f
Wind:3 knots, 3.5 mph, 2 m/s, from 120°
Visibility:10.0 statute miles
(CLR) Clear
KGEY 180053Z AUTO 12003KT 10SM CLR 03/M05 A2960 RMK AO2 SLP055 T00281050 $
VFR 23:53:00 17-02-18
Automated station, no observer
Altimeter:29.63 hg
Temp:3.9°c 37°f
Dew point:-5.6°c 23°f
Wind:5 knots, 5.8 mph, 3 m/s, from 110°
Visibility:10.0 statute miles
(CLR) Clear
KGEY 172353Z AUTO 11005KT 10SM CLR 04/M06 A2963 RMK AO2 SLP067 T00391056 10044 21033 56042 $
VFR 22:53:00 17-02-18
Automated station, no observer
Altimeter:29.67 hg
Temp:3.9°c 37°f
Dew point:-5.6°c 23°f
Wind:4 knots, 4.6 mph, 2 m/s, from 140°
Visibility:10.0 statute miles
(CLR) Clear
KGEY 172253Z AUTO 14004KT 10SM CLR 04/M06 A2967 RMK AO2 SLP081 T00391056 $
VFR 21:53:00 17-02-18
Automated station, no observer
Altimeter:29.70 hg
Temp:2.8°c 36°f
Dew point:-5.0°c 23°f
Wind:6 knots, 6.9 mph, 3 m/s, from 100°
Visibility:10.0 statute miles
(CLR) Clear
KGEY 172153Z AUTO 10006KT 10SM CLR 03/M05 A2970 RMK AO2 SLP093 T00281050 $
TAF
No TAF for KGEY
Forecast at KGEY
No Forecast Reports for KGEY